Elon, Iowa
Current Conditions -  °F | °C
As of 5:15 AM on Friday 31 Oct 2014 (Local Time) from KPDC Reporting Station
Clear Clear  
Wind Chill: 22°   Ceiling: Unl
Heat Index: 33°   Visibility: 10mi
Dew Point: 19°   Wind: 16mph
Humidity: 58%   Direction: 330°NNW
Pressure: 30.3"   Gusts: 26mph
Location:  43.2691°N, 91.2611°W
Report Text: KPDC 311015Z AUTO 33014G23KT 10SM CLR 00/M07 A3030 RMK AO2 T00031072
Loading
Personal Weather Stations






























Interactive Weather Map
Tropical Storm Tracking
New forecast layout! Learn more

10-Day Weather Forecast

Advertisements
Track Severe Weather on mobile